createdAt,value
2023-03-11T00:00:48.629Z,9.64
2023-03-11T00:03:22.068Z,9.60
2023-03-11T00:05:52.102Z,9.60
2023-03-11T00:08:25.172Z,9.56
2023-03-11T00:11:00.099Z,9.52
2023-03-11T00:13:29.586Z,9.48
2023-03-11T00:15:57.369Z,9.43
2023-03-11T00:18:30.308Z,9.41
2023-03-11T00:20:59.604Z,9.39
2023-03-11T00:23:28.358Z,9.32
2023-03-11T00:25:56.365Z,9.31
2023-03-11T00:28:26.115Z,9.27
2023-03-11T00:30:54.026Z,9.25
2023-03-11T00:33:22.833Z,9.23
2023-03-11T00:35:51.229Z,9.18
2023-03-11T00:38:21.213Z,9.17
2023-03-11T00:40:49.693Z,9.16
2023-03-11T00:43:17.557Z,9.18
2023-03-11T00:45:45.500Z,9.23
2023-03-11T00:48:14.508Z,9.27
2023-03-11T00:50:42.613Z,9.30
2023-03-11T00:53:11.622Z,9.36
2023-03-11T00:56:02.179Z,9.40
2023-03-11T00:58:32.179Z,9.48
2023-03-11T01:01:00.010Z,9.50
2023-03-11T01:03:27.939Z,9.51
2023-03-11T01:05:55.690Z,9.57
2023-03-11T01:08:26.538Z,9.63
2023-03-11T01:10:55.280Z,9.69
2023-03-11T01:13:23.145Z,9.67
2023-03-11T01:15:51.972Z,9.68
2023-03-11T01:18:21.693Z,9.65
2023-03-11T01:20:50.174Z,9.62
2023-03-11T01:23:19.424Z,9.55
2023-03-11T01:25:48.404Z,9.54
2023-03-11T01:28:16.070Z,9.50
2023-03-11T01:30:44.926Z,9.43
2023-03-11T01:33:19.308Z,9.40
2023-03-11T01:35:48.839Z,9.35
2023-03-11T01:38:16.812Z,9.32
2023-03-11T01:40:48.689Z,9.31
2023-03-11T01:43:45.875Z,9.31
2023-03-11T01:46:29.538Z,9.29
2023-03-11T01:49:01.166Z,9.25
2023-03-11T01:51:41.072Z,9.19
2023-03-11T01:54:14.599Z,9.17
2023-03-11T01:56:44.317Z,9.15
2023-03-11T01:59:15.900Z,9.13
2023-03-11T02:02:04.299Z,9.10
2023-03-11T02:04:34.743Z,9.06
2023-03-11T02:07:04.513Z,9.01
2023-03-11T02:09:32.181Z,8.97
2023-03-11T02:12:00.847Z,8.91
2023-03-11T02:14:30.709Z,8.89
2023-03-11T02:16:59.823Z,8.86
2023-03-11T02:20:05.017Z,8.85
2023-03-11T02:22:33.757Z,8.86
2023-03-11T02:25:25.405Z,8.87
2023-03-11T02:27:55.330Z,8.90
2023-03-11T02:30:27.142Z,8.91
2023-03-11T02:32:56.320Z,8.96
2023-03-11T02:35:24.541Z,9.02
2023-03-11T02:37:54.594Z,9.04
2023-03-11T02:40:30.509Z,9.09
2023-03-11T02:43:06.137Z,9.15
2023-03-11T02:45:36.243Z,9.14
2023-03-11T02:48:04.583Z,9.13
2023-03-11T02:50:33.981Z,9.13
2023-03-11T02:53:01.763Z,9.10
2023-03-11T02:55:29.523Z,9.06
2023-03-11T02:57:57.592Z,9.02
2023-03-11T03:00:25.892Z,8.96
2023-03-11T03:02:55.334Z,8.90
2023-03-11T03:05:23.765Z,8.84
2023-03-11T03:07:51.789Z,8.74
2023-03-11T03:10:21.830Z,8.66
2023-03-11T03:12:50.008Z,8.61
2023-03-11T03:15:18.221Z,8.59
2023-03-11T03:17:46.753Z,8.57
2023-03-11T03:20:14.847Z,8.54
2023-03-11T03:22:44.314Z,8.52
2023-03-11T03:25:13.027Z,8.50
2023-03-11T03:27:44.232Z,8.50
2023-03-11T03:30:13.081Z,8.49
2023-03-11T03:32:41.395Z,8.44
2023-03-11T03:35:11.038Z,8.41
2023-03-11T03:37:40.843Z,8.40
2023-03-11T03:40:10.913Z,8.37
2023-03-11T03:42:39.184Z,8.36
2023-03-11T03:45:09.664Z,8.35
2023-03-11T03:47:37.505Z,8.34
2023-03-11T03:50:09.867Z,8.33
2023-03-11T03:52:39.216Z,8.35
2023-03-11T03:55:08.162Z,8.35
2023-03-11T03:57:36.075Z,8.34
2023-03-11T04:00:07.618Z,8.33
2023-03-11T04:02:37.379Z,8.36
2023-03-11T04:05:07.614Z,8.40
2023-03-11T04:07:36.208Z,8.43
2023-03-11T04:10:06.440Z,8.48
2023-03-11T04:12:34.430Z,8.52
2023-03-11T04:15:02.947Z,8.57
2023-03-11T04:17:30.770Z,8.65
2023-03-11T04:19:58.984Z,8.77
2023-03-11T04:22:26.827Z,8.86
2023-03-11T04:24:55.062Z,8.92
2023-03-11T04:27:22.702Z,9.01
2023-03-11T04:29:51.032Z,9.06
2023-03-11T04:32:19.174Z,9.10
2023-03-11T04:34:47.367Z,9.09
2023-03-11T04:37:15.069Z,9.06
2023-03-11T04:39:42.707Z,9.03
2023-03-11T04:42:12.322Z,8.97
2023-03-11T04:44:39.786Z,8.90
2023-03-11T04:47:07.554Z,8.80
2023-03-11T04:49:35.810Z,8.75
2023-03-11T04:52:04.628Z,8.69
2023-03-11T04:54:32.313Z,8.63
2023-03-11T04:57:00.202Z,8.56
2023-03-11T04:59:27.925Z,8.53
2023-03-11T05:01:55.706Z,8.54
2023-03-11T05:04:23.641Z,8.53
2023-03-11T05:06:51.574Z,8.51
2023-03-11T05:09:19.868Z,8.49
2023-03-11T05:11:47.991Z,8.47
2023-03-11T05:14:17.381Z,8.42
2023-03-11T05:16:45.312Z,8.40
2023-03-11T05:19:17.596Z,8.38
2023-03-11T05:21:45.237Z,8.37
2023-03-11T05:24:12.863Z,8.35
2023-03-11T05:26:40.842Z,8.34
2023-03-11T05:29:08.968Z,8.32
2023-03-11T05:31:37.038Z,8.36
2023-03-11T05:34:05.193Z,8.39
2023-03-11T05:36:33.128Z,8.48
2023-03-11T05:39:01.337Z,8.54
2023-03-11T05:41:29.458Z,8.57
2023-03-11T05:43:56.950Z,8.65
2023-03-11T05:46:27.651Z,8.72
2023-03-11T05:48:55.855Z,8.79
2023-03-11T05:51:23.583Z,8.86
2023-03-11T05:53:51.614Z,8.91
2023-03-11T05:56:23.045Z,8.96
2023-03-11T05:58:51.144Z,8.97
2023-03-11T06:01:20.323Z,8.99
2023-03-11T06:03:48.428Z,8.99
2023-03-11T06:06:17.266Z,8.98
2023-03-11T06:08:46.843Z,8.95
2023-03-11T06:11:14.892Z,8.79
2023-03-11T06:13:43.153Z,8.72
2023-03-11T06:16:11.732Z,8.68
2023-03-11T06:18:39.442Z,8.66
2023-03-11T06:21:08.072Z,8.67
2023-03-11T06:23:35.749Z,8.68
2023-03-11T06:26:05.676Z,8.70
2023-03-11T06:28:35.325Z,8.67
2023-03-11T06:31:14.879Z,8.67
2023-03-11T06:33:43.560Z,8.67
2023-03-11T06:36:14.136Z,8.69
2023-03-11T06:38:42.621Z,8.71
2023-03-11T06:41:10.440Z,8.71
2023-03-11T06:43:38.541Z,8.74
2023-03-11T06:46:13.369Z,8.77
2023-03-11T06:48:41.555Z,8.79
2023-03-11T06:51:10.840Z,8.82
2023-03-11T06:53:39.158Z,8.87
2023-03-11T06:56:13.441Z,8.86
2023-03-11T06:58:49.462Z,8.89
2023-03-11T07:01:24.638Z,8.95
2023-03-11T07:03:53.632Z,8.87
2023-03-11T07:06:26.038Z,8.74
2023-03-11T07:08:55.466Z,8.69
2023-03-11T07:11:27.513Z,8.59
2023-03-11T07:13:57.100Z,8.53
2023-03-11T07:16:30.026Z,8.51
2023-03-11T07:19:02.740Z,8.48
2023-03-11T07:21:32.323Z,8.41
2023-03-11T07:24:01.822Z,8.33
2023-03-11T07:26:31.682Z,8.29
2023-03-11T07:29:00.405Z,8.30
2023-03-11T07:31:31.285Z,8.26
2023-03-11T07:34:01.856Z,8.21
2023-03-11T07:36:30.284Z,8.23
2023-03-11T07:39:04.323Z,8.20
2023-03-11T07:41:34.666Z,8.17
2023-03-11T07:44:04.139Z,8.14
2023-03-11T07:46:32.299Z,8.17
2023-03-11T07:49:03.114Z,8.22
2023-03-11T07:51:33.600Z,8.29
2023-03-11T07:54:02.168Z,8.33
2023-03-11T07:56:33.535Z,8.39
2023-03-11T07:59:03.971Z,8.48
2023-03-11T08:01:35.200Z,8.58
2023-03-11T08:04:06.571Z,8.68
2023-03-11T08:06:36.799Z,8.77
2023-03-11T08:09:08.361Z,8.84
2023-03-11T08:11:36.666Z,8.93
2023-03-11T08:14:05.565Z,9.03
2023-03-11T08:16:33.484Z,9.10
2023-03-11T08:19:01.113Z,9.17
2023-03-11T08:21:31.530Z,9.23
2023-03-11T08:24:01.319Z,9.24
2023-03-11T08:26:29.336Z,9.26
2023-03-11T08:28:58.454Z,9.27
2023-03-11T08:31:30.393Z,9.27
2023-03-11T08:34:02.995Z,9.27
2023-03-11T08:36:31.811Z,9.27
2023-03-11T08:39:00.284Z,9.27
2023-03-11T08:41:28.596Z,9.29
2023-03-11T08:43:56.277Z,9.28
2023-03-11T08:46:38.105Z,9.29
2023-03-11T08:49:06.726Z,9.29
2023-03-11T08:51:35.271Z,9.30
2023-03-11T08:54:03.796Z,9.32
2023-03-11T08:56:31.766Z,9.37
2023-03-11T08:58:59.573Z,9.42
2023-03-11T09:01:28.979Z,9.53
2023-03-11T09:03:56.976Z,9.59
2023-03-11T09:06:25.077Z,9.66
2023-03-11T09:08:52.886Z,9.73
2023-03-11T09:11:22.106Z,9.80
2023-03-11T09:13:50.217Z,9.83
2023-03-11T09:16:21.793Z,9.87
2023-03-11T09:18:49.750Z,9.91
2023-03-11T09:21:17.491Z,9.89
2023-03-11T09:23:45.683Z,9.85
2023-03-11T09:26:13.609Z,9.83
2023-03-11T09:28:42.145Z,9.74
2023-03-11T09:31:10.010Z,9.67
2023-03-11T09:33:39.920Z,9.61
2023-03-11T09:36:10.688Z,9.58
2023-03-11T09:38:38.351Z,9.58
2023-03-11T09:41:26.725Z,9.57
2023-03-11T09:44:22.357Z,9.55
2023-03-11T09:47:27.484Z,9.58
2023-03-11T09:50:06.729Z,9.62
2023-03-11T09:52:58.306Z,9.81
2023-03-11T09:55:52.082Z,9.93
2023-03-11T09:58:54.829Z,9.99
2023-03-11T10:01:42.340Z,10.04
2023-03-11T10:04:26.183Z,10.05
2023-03-11T10:06:54.087Z,10.17
2023-03-11T10:09:39.726Z,10.30
2023-03-11T10:12:45.378Z,10.35
2023-03-11T10:15:40.205Z,10.45
2023-03-11T10:18:28.430Z,10.55
2023-03-11T10:21:11.015Z,10.59
2023-03-11T10:23:59.268Z,10.60
2023-03-11T10:26:44.277Z,10.64
2023-03-11T10:29:32.171Z,10.80
2023-03-11T10:32:07.424Z,10.97
2023-03-11T10:34:43.175Z,10.98
2023-03-11T10:37:47.931Z,10.93
2023-03-11T10:40:25.601Z,10.80
2023-03-11T10:42:57.125Z,10.71
2023-03-11T10:45:27.156Z,10.55
2023-03-11T10:47:57.692Z,10.46
2023-03-11T10:50:25.288Z,10.36
2023-03-11T10:53:07.353Z,10.29
2023-03-11T10:55:35.627Z,10.26
2023-03-11T10:58:13.130Z,10.32
2023-03-11T11:00:41.025Z,10.49
2023-03-11T11:03:20.307Z,10.71
2023-03-11T11:05:58.357Z,10.93
2023-03-11T11:08:26.208Z,11.18
2023-03-11T11:11:00.406Z,11.36
2023-03-11T11:13:31.860Z,11.46
2023-03-11T11:16:20.456Z,11.46
2023-03-11T11:18:59.771Z,11.51
2023-03-11T11:21:51.870Z,11.48
2023-03-11T11:24:26.734Z,11.45
2023-03-11T11:27:22.901Z,11.57
2023-03-11T11:30:16.452Z,11.63
2023-03-11T11:32:44.052Z,11.65
2023-03-11T11:35:16.003Z,11.53
2023-03-11T11:37:52.944Z,11.36
2023-03-11T11:40:30.607Z,11.24
2023-03-11T11:43:17.383Z,11.11
2023-03-11T11:45:49.280Z,10.95
2023-03-11T11:49:04.138Z,10.83
2023-03-11T11:51:37.090Z,10.74
2023-03-11T11:54:27.003Z,10.64
2023-03-11T11:56:56.401Z,10.59
2023-03-11T11:59:25.391Z,10.50
2023-03-11T12:02:19.791Z,10.44
2023-03-11T12:05:21.941Z,10.40
2023-03-11T12:08:23.915Z,10.37
2023-03-11T12:11:01.452Z,10.34
2023-03-11T12:13:46.790Z,10.36
2023-03-11T12:16:29.832Z,10.38
2023-03-11T12:19:12.065Z,10.39
2023-03-11T12:21:57.213Z,10.35
2023-03-11T12:24:59.372Z,10.30
2023-03-11T12:27:54.218Z,10.28
2023-03-11T12:30:26.893Z,10.23
2023-03-11T12:33:03.080Z,10.23
2023-03-11T12:35:36.484Z,10.22
2023-03-11T12:38:27.163Z,10.15
2023-03-11T12:41:09.501Z,10.15
2023-03-11T12:43:42.481Z,10.17
2023-03-11T12:46:13.926Z,10.10
2023-03-11T12:48:51.728Z,10.09
2023-03-11T12:51:39.179Z,10.06
2023-03-11T12:54:35.715Z,9.98
2023-03-11T12:57:24.017Z,9.96
2023-03-11T13:00:24.439Z,9.89
2023-03-11T13:03:35.889Z,9.80
2023-03-11T13:06:25.983Z,9.68
2023-03-11T13:09:00.417Z,9.63
2023-03-11T13:11:39.330Z,9.51
2023-03-11T13:14:30.570Z,9.42
2023-03-11T13:17:25.969Z,9.36
2023-03-11T13:19:56.433Z,9.31
2023-03-11T13:22:58.723Z,9.26
2023-03-11T13:25:43.381Z,9.21
2023-03-11T13:28:57.213Z,9.16
2023-03-11T13:32:02.081Z,9.17
2023-03-11T13:34:56.532Z,9.12
2023-03-11T13:37:55.509Z,9.11
2023-03-11T13:40:39.256Z,9.11
2023-03-11T13:43:25.573Z,9.14
2023-03-11T13:46:35.093Z,9.19
2023-03-11T13:49:32.872Z,9.17
2023-03-11T13:52:02.658Z,9.21
2023-03-11T13:54:41.558Z,9.20
2023-03-11T13:57:34.391Z,9.15
2023-03-11T14:00:17.154Z,9.12
2023-03-11T14:02:50.425Z,9.05
2023-03-11T14:05:40.227Z,8.95
2023-03-11T14:08:27.595Z,8.91
2023-03-11T14:10:58.858Z,8.83
2023-03-11T14:13:33.135Z,8.74
2023-03-11T14:16:32.625Z,8.70
2023-03-11T14:19:15.770Z,8.50
2023-03-11T14:21:47.679Z,8.41
2023-03-11T14:24:28.469Z,8.37
2023-03-11T14:27:00.184Z,8.28
2023-03-11T14:29:39.807Z,8.15
2023-03-11T14:35:34.137Z,7.99
2023-03-11T14:38:01.723Z,7.95
2023-03-11T14:40:32.343Z,7.89
2023-03-11T14:43:06.748Z,7.84
2023-03-11T14:45:38.407Z,7.77
2023-03-11T14:48:23.962Z,7.66
2023-03-11T14:50:53.393Z,7.74
2023-03-11T14:53:25.716Z,7.87
2023-03-11T14:56:07.119Z,7.82
2023-03-11T14:58:39.854Z,7.73
2023-03-11T15:01:21.420Z,7.49
2023-03-11T15:04:12.362Z,7.30
2023-03-11T15:06:43.691Z,7.18
2023-03-11T15:09:15.415Z,6.98
2023-03-11T15:11:58.715Z,6.83
2023-03-11T15:14:40.593Z,6.76
2023-03-11T15:17:37.067Z,6.68
2023-03-11T15:19:56.293Z,6.51
2023-03-11T15:22:38.129Z,6.28
2023-03-11T15:25:18.400Z,6.14
2023-03-11T15:27:46.350Z,5.99
2023-03-11T15:30:28.251Z,5.84
2023-03-11T15:32:57.534Z,5.76
2023-03-11T15:35:30.926Z,5.65
2023-03-11T15:38:21.276Z,5.53
2023-03-11T15:40:57.176Z,5.52
2023-03-11T15:43:30.193Z,5.43
2023-03-11T15:46:01.147Z,5.33
2023-03-11T15:48:30.668Z,5.28
2023-03-11T15:51:00.115Z,5.25
2023-03-11T15:53:30.169Z,5.25
2023-03-11T15:56:07.298Z,5.27
2023-03-11T15:58:32.339Z,5.26
2023-03-11T16:01:00.069Z,5.24
2023-03-11T16:03:30.186Z,5.23
2023-03-11T16:05:57.250Z,5.25
2023-03-11T16:08:24.950Z,5.26
2023-03-11T16:10:52.204Z,5.23
2023-03-11T16:13:19.688Z,5.23
2023-03-11T16:15:47.349Z,5.21
2023-03-11T16:18:15.889Z,5.19
2023-03-11T16:20:50.136Z,5.19
2023-03-11T16:23:25.265Z,5.19
2023-03-11T16:26:02.458Z,5.22
2023-03-11T16:28:30.327Z,5.15
2023-03-11T16:30:58.137Z,5.10
2023-03-11T16:33:25.733Z,5.12
2023-03-11T16:35:53.702Z,5.01
2023-03-11T16:38:22.781Z,5.01
2023-03-11T16:41:00.453Z,4.95
2023-03-11T16:43:30.163Z,4.90
2023-03-11T16:45:57.657Z,4.87
2023-03-11T16:48:25.693Z,4.87
2023-03-11T16:50:53.193Z,4.88
2023-03-11T16:53:21.500Z,4.90
2023-03-11T16:55:49.071Z,4.86
2023-03-11T16:58:16.916Z,4.81
2023-03-11T17:00:45.645Z,4.82
2023-03-11T17:03:15.983Z,4.79
2023-03-11T17:05:43.835Z,4.79
2023-03-11T17:08:12.390Z,4.81
2023-03-11T17:10:43.590Z,4.78
2023-03-11T17:13:15.499Z,4.75
2023-03-11T17:15:44.104Z,4.77
2023-03-11T17:18:13.228Z,4.76
2023-03-11T17:20:43.099Z,4.72
2023-03-11T17:23:11.054Z,4.70
2023-03-11T17:25:41.812Z,4.70
2023-03-11T17:28:09.608Z,4.71
2023-03-11T17:30:43.223Z,4.66
2023-03-11T17:33:11.182Z,4.66
2023-03-11T17:35:40.267Z,4.61
2023-03-11T17:38:08.074Z,4.56
2023-03-11T17:40:37.197Z,4.51
2023-03-11T17:43:05.175Z,4.48
2023-03-11T17:45:33.035Z,4.47
2023-03-11T17:48:00.490Z,4.41
2023-03-11T17:50:28.185Z,4.35
2023-03-11T17:52:56.122Z,4.33
2023-03-11T17:55:23.825Z,4.30
2023-03-11T17:57:52.478Z,4.25
2023-03-11T18:00:22.005Z,4.18
2023-03-11T18:02:50.924Z,4.18
2023-03-11T18:05:20.418Z,4.11
2023-03-11T18:07:48.273Z,4.10
2023-03-11T18:10:16.494Z,4.09
2023-03-11T18:12:45.867Z,4.02
2023-03-11T18:15:16.596Z,3.93
2023-03-11T18:17:48.239Z,3.88
2023-03-11T18:20:17.510Z,3.82
2023-03-11T18:22:46.614Z,3.81
2023-03-11T18:25:14.743Z,3.78
2023-03-11T18:27:42.908Z,3.76
2023-03-11T18:30:13.810Z,3.72
2023-03-11T18:32:42.020Z,3.68
2023-03-11T18:35:09.975Z,3.65
2023-03-11T18:37:37.660Z,3.65
2023-03-11T18:40:06.882Z,3.66
2023-03-11T18:42:34.748Z,3.64
2023-03-11T18:45:02.742Z,3.63
2023-03-11T18:47:35.611Z,3.63
2023-03-11T18:50:04.358Z,3.62
2023-03-11T18:52:32.006Z,3.61
2023-03-11T18:54:59.543Z,3.61
2023-03-11T18:57:27.363Z,3.58
2023-03-11T18:59:55.127Z,3.59
2023-03-11T19:02:22.953Z,3.63
2023-03-11T19:04:50.440Z,3.65
2023-03-11T19:07:17.874Z,3.69
2023-03-11T19:09:47.878Z,3.75
2023-03-11T19:12:15.360Z,3.77
2023-03-11T19:14:42.922Z,3.81
2023-03-11T19:17:12.373Z,3.87
2023-03-11T19:19:40.151Z,3.84
2023-03-11T19:22:07.696Z,3.85
2023-03-11T19:24:35.350Z,3.86
2023-03-11T19:27:03.018Z,3.91
2023-03-11T19:29:30.760Z,3.89
2023-03-11T19:31:58.595Z,3.92
2023-03-11T19:34:26.656Z,3.92
2023-03-11T19:36:54.214Z,3.94
2023-03-11T19:39:21.851Z,3.94
2023-03-11T19:41:49.806Z,3.93
2023-03-11T19:44:17.361Z,3.94
2023-03-11T19:46:45.251Z,3.95
2023-03-11T19:49:13.022Z,3.94
2023-03-11T19:51:49.696Z,3.95
2023-03-11T19:54:14.425Z,3.92
2023-03-11T19:56:42.097Z,3.91
2023-03-11T19:59:09.938Z,3.91
2023-03-11T20:01:37.905Z,3.86
2023-03-11T20:04:05.534Z,3.82
2023-03-11T20:06:33.554Z,3.77
2023-03-11T20:09:01.012Z,3.74
2023-03-11T20:11:28.840Z,3.62
2023-03-11T20:13:56.644Z,3.55
2023-03-11T20:16:24.160Z,3.50
2023-03-11T20:18:52.472Z,3.47
2023-03-11T20:21:20.149Z,3.45
2023-03-11T20:23:48.556Z,3.38
2023-03-11T20:26:18.768Z,3.34
2023-03-11T20:28:47.024Z,3.30
2023-03-11T20:31:20.879Z,3.28
2023-03-11T20:33:50.260Z,3.25
2023-03-11T20:36:25.686Z,3.15
2023-03-11T20:38:55.675Z,3.17
2023-03-11T20:41:25.382Z,3.19
2023-03-11T20:43:55.514Z,3.13
2023-03-11T20:46:23.609Z,3.12
2023-03-11T20:48:51.384Z,3.08
2023-03-11T20:51:22.576Z,3.11
2023-03-11T20:53:50.612Z,3.13
2023-03-11T20:56:22.143Z,3.16
2023-03-11T20:58:51.682Z,3.07
2023-03-11T21:01:29.174Z,3.00
2023-03-11T21:04:00.450Z,2.96
2023-03-11T21:06:32.998Z,2.92
2023-03-11T21:09:05.541Z,2.90
2023-03-11T21:11:33.602Z,2.85
2023-03-11T21:14:01.203Z,2.83
2023-03-11T21:16:29.175Z,2.82
2023-03-11T21:18:57.803Z,2.81
2023-03-11T21:21:25.886Z,2.80
2023-03-11T21:23:54.269Z,2.74
2023-03-11T21:26:21.997Z,2.75
2023-03-11T21:28:49.805Z,2.73
2023-03-11T21:31:20.682Z,2.70
2023-03-11T21:33:54.636Z,2.73
2023-03-11T21:36:22.639Z,2.69
2023-03-11T21:38:50.888Z,2.69
2023-03-11T21:41:24.561Z,2.70
2023-03-11T21:43:54.542Z,2.68
2023-03-11T21:46:27.213Z,2.69
2023-03-11T21:48:55.444Z,2.61
2023-03-11T21:51:23.597Z,2.59
2023-03-11T21:53:51.475Z,2.58
2023-03-11T21:56:19.417Z,2.56
2023-03-11T21:58:47.299Z,2.58
2023-03-11T22:01:15.090Z,2.59
2023-03-11T22:03:43.437Z,2.53
2023-03-11T22:06:13.086Z,2.58
2023-03-11T22:08:42.068Z,2.55
2023-03-11T22:11:16.613Z,2.51
2023-03-11T22:13:47.246Z,2.49
2023-03-11T22:16:15.095Z,2.46
2023-03-11T22:18:43.383Z,2.43
2023-03-11T22:21:11.277Z,2.42
2023-03-11T22:23:39.336Z,2.38
2023-03-11T22:26:07.455Z,2.39
2023-03-11T22:28:35.210Z,2.35
2023-03-11T22:31:12.893Z,2.36
2023-03-11T22:33:40.623Z,2.33
2023-03-11T22:36:09.184Z,2.31
2023-03-11T22:38:37.791Z,2.26
2023-03-11T22:41:07.515Z,2.27
2023-03-11T22:43:35.778Z,2.23
2023-03-11T22:46:05.374Z,2.24
2023-03-11T22:48:34.178Z,2.26
2023-03-11T22:51:01.844Z,2.26
2023-03-11T22:53:29.733Z,2.25
2023-03-11T22:55:57.206Z,2.18
2023-03-11T22:58:24.791Z,2.14
2023-03-11T23:00:52.493Z,2.14
2023-03-11T23:03:20.413Z,2.10
2023-03-11T23:05:48.384Z,2.08
2023-03-11T23:08:16.439Z,2.07
2023-03-11T23:10:46.858Z,2.05
2023-03-11T23:13:15.378Z,1.96
2023-03-11T23:15:46.410Z,1.94
2023-03-11T23:18:16.145Z,1.92
2023-03-11T23:20:44.518Z,1.88
2023-03-11T23:23:13.690Z,1.81
2023-03-11T23:25:41.987Z,1.77
2023-03-11T23:28:09.776Z,1.70
2023-03-11T23:30:40.052Z,1.67
2023-03-11T23:33:08.163Z,1.70
2023-03-11T23:35:44.095Z,1.75
2023-03-11T23:38:11.863Z,1.80
2023-03-11T23:40:41.124Z,1.74
2023-03-11T23:43:08.971Z,1.66
2023-03-11T23:45:36.845Z,1.61
2023-03-11T23:48:04.537Z,1.57
2023-03-11T23:50:32.153Z,1.53
2023-03-11T23:53:00.050Z,1.43
2023-03-11T23:55:28.034Z,1.39
2023-03-11T23:57:55.439Z,1.33
